createdAt,value
2023-04-12T00:01:19.845Z,76.70
2023-04-12T00:03:51.746Z,76.40
2023-04-12T00:06:24.193Z,76.70
2023-04-12T00:08:55.289Z,77.30
2023-04-12T00:11:26.261Z,77.60
2023-04-12T00:13:57.908Z,77.50
2023-04-12T00:16:29.643Z,77.40
2023-04-12T00:19:02.554Z,76.90
2023-04-12T00:21:33.554Z,76.90
2023-04-12T00:24:05.055Z,77.00
2023-04-12T00:26:36.073Z,76.60
2023-04-12T00:29:07.042Z,78.10
2023-04-12T00:31:38.072Z,77.60
2023-04-12T00:34:09.108Z,78.10
2023-04-12T00:36:40.073Z,77.50
2023-04-12T00:39:11.027Z,77.40
2023-04-12T00:41:42.092Z,77.40
2023-04-12T00:44:13.110Z,78.00
2023-04-12T00:46:44.164Z,77.90
2023-04-12T00:49:15.716Z,77.90
2023-04-12T00:51:46.800Z,77.30
2023-04-12T00:54:19.289Z,77.20
2023-04-12T00:56:50.268Z,77.70
2023-04-12T00:59:21.242Z,77.80
2023-04-12T01:01:53.953Z,78.50
2023-04-12T01:04:26.672Z,78.50
2023-04-12T01:07:13.269Z,78.80
2023-04-12T01:09:53.014Z,78.30
2023-04-12T01:12:29.475Z,77.80
2023-04-12T01:15:11.908Z,77.90
2023-04-12T01:18:00.702Z,78.10
2023-04-12T01:20:34.887Z,77.90
2023-04-12T01:23:33.168Z,78.00
2023-04-12T01:26:17.229Z,77.40
2023-04-12T01:29:08.971Z,77.00
2023-04-12T01:31:42.765Z,77.40
2023-04-12T01:34:16.155Z,76.80
2023-04-12T01:36:50.490Z,77.10
2023-04-12T01:39:22.518Z,76.90
2023-04-12T01:41:53.778Z,76.60
2023-04-12T01:44:24.843Z,76.70
2023-04-12T01:46:56.480Z,76.10
2023-04-12T01:49:29.939Z,76.60
2023-04-12T01:52:18.837Z,76.30
2023-04-12T01:54:52.256Z,76.30
2023-04-12T01:57:24.814Z,75.60
2023-04-12T01:59:58.416Z,75.40
2023-04-12T02:02:30.063Z,75.60
2023-04-12T02:05:03.023Z,75.50
2023-04-12T02:07:34.318Z,75.20
2023-04-12T02:10:05.288Z,75.60
2023-04-12T02:12:36.278Z,75.00
2023-04-12T02:15:09.061Z,75.20
2023-04-12T02:17:40.411Z,74.70
2023-04-12T02:20:13.042Z,74.50
2023-04-12T02:22:44.367Z,74.30
2023-04-12T02:25:16.585Z,74.30
2023-04-12T02:27:50.920Z,73.80
2023-04-12T02:30:21.876Z,73.40
2023-04-12T02:32:54.168Z,73.10
2023-04-12T02:35:26.070Z,72.90
2023-04-12T02:37:57.260Z,72.20
2023-04-12T02:40:28.341Z,71.90
2023-04-12T02:42:59.433Z,71.90
2023-04-12T02:45:30.830Z,71.70
2023-04-12T02:48:02.271Z,71.20
2023-04-12T02:50:33.493Z,70.50
2023-04-12T02:53:04.511Z,70.50
2023-04-12T02:55:35.487Z,70.20
2023-04-12T02:58:06.702Z,69.80
2023-04-12T03:00:37.718Z,69.80
2023-04-12T03:03:10.184Z,68.70
2023-04-12T03:05:41.192Z,68.20
2023-04-12T03:08:12.193Z,68.70
2023-04-12T03:10:43.194Z,69.20
2023-04-12T03:13:14.194Z,68.60
2023-04-12T03:15:48.124Z,69.00
2023-04-12T03:18:20.587Z,68.80
2023-04-12T03:20:51.649Z,67.80
2023-04-12T03:23:22.628Z,67.50
2023-04-12T03:25:53.591Z,67.50
2023-04-12T03:28:24.560Z,66.70
2023-04-12T03:30:55.929Z,65.50
2023-04-12T03:33:26.911Z,65.70
2023-04-12T03:35:57.976Z,66.00
2023-04-12T03:38:29.103Z,66.30
2023-04-12T03:41:00.141Z,65.30
2023-04-12T03:43:32.627Z,65.00
2023-04-12T03:46:03.697Z,65.30
2023-04-12T03:48:34.805Z,64.10
2023-04-12T03:51:07.578Z,64.00
2023-04-12T03:53:38.622Z,63.20
2023-04-12T03:56:10.531Z,62.70
2023-04-12T03:58:41.629Z,62.10
2023-04-12T04:01:14.022Z,61.30
2023-04-12T04:03:46.585Z,62.40
2023-04-12T04:06:18.652Z,62.00
2023-04-12T04:08:49.645Z,61.20
2023-04-12T04:11:21.435Z,59.20
2023-04-12T04:13:52.690Z,60.60
2023-04-12T04:16:23.774Z,60.20
2023-04-12T04:18:54.819Z,58.50
2023-04-12T04:21:25.840Z,58.50
2023-04-12T04:23:58.704Z,59.00
2023-04-12T04:26:31.629Z,60.90
2023-04-12T04:29:06.318Z,60.60
2023-04-12T04:31:37.509Z,59.60
2023-04-12T04:34:11.623Z,59.80
2023-04-12T04:36:43.180Z,59.50
2023-04-12T04:39:14.176Z,58.40
2023-04-12T04:41:46.003Z,58.30
2023-04-12T04:44:16.971Z,57.80
2023-04-12T04:46:49.488Z,57.70
2023-04-12T04:49:20.658Z,57.40
2023-04-12T04:51:51.614Z,57.60
2023-04-12T04:54:22.641Z,57.60
2023-04-12T04:56:53.648Z,57.20
2023-04-12T04:59:25.040Z,57.80
2023-04-12T05:01:56.027Z,57.20
2023-04-12T05:04:27.084Z,56.60
2023-04-12T05:06:58.075Z,56.60
2023-04-12T05:09:29.088Z,56.70
2023-04-12T05:12:00.050Z,55.10
2023-04-12T05:14:43.410Z,55.30
2023-04-12T05:17:03.467Z,55.00
2023-04-12T05:19:34.516Z,54.90
2023-04-12T05:22:05.533Z,55.80
2023-04-12T05:24:36.498Z,54.80
2023-04-12T05:27:07.654Z,54.50
2023-04-12T05:29:38.646Z,53.90
2023-04-12T05:32:09.626Z,54.70
2023-04-12T05:34:40.869Z,54.90
2023-04-12T05:37:12.389Z,54.70
2023-04-12T05:39:43.738Z,54.30
2023-04-12T05:42:14.712Z,54.50
2023-04-12T05:44:48.588Z,53.20
2023-04-12T05:47:18.823Z,53.20
2023-04-12T05:49:49.991Z,52.80
2023-04-12T05:52:21.004Z,53.00
2023-04-12T05:54:52.338Z,53.10
2023-04-12T05:57:23.352Z,53.90
2023-04-12T05:59:55.936Z,53.10
2023-04-12T06:02:27.168Z,53.40
2023-04-12T06:04:59.317Z,53.10
2023-04-12T06:07:30.422Z,51.90
2023-04-12T06:10:01.427Z,52.40
2023-04-12T06:12:32.451Z,51.50
2023-04-12T06:15:03.461Z,51.90
2023-04-12T06:17:34.478Z,52.30
2023-04-12T06:20:07.458Z,51.90
2023-04-12T06:22:38.524Z,52.60
2023-04-12T06:25:10.434Z,51.70
2023-04-12T06:27:41.569Z,51.20
2023-04-12T06:30:32.853Z,51.50
2023-04-12T06:33:04.359Z,51.20
2023-04-12T06:35:35.610Z,51.40
2023-04-12T06:38:06.748Z,51.20
2023-04-12T06:40:38.099Z,50.10
2023-04-12T06:43:09.160Z,50.40
2023-04-12T06:45:40.171Z,50.50
2023-04-12T06:48:11.302Z,50.30
2023-04-12T06:50:42.510Z,50.80
2023-04-12T06:53:15.545Z,50.90
2023-04-12T06:55:47.015Z,50.70
2023-04-12T06:58:18.029Z,50.70
2023-04-12T07:00:49.021Z,50.60
2023-04-12T07:03:20.173Z,50.00
2023-04-12T07:05:51.211Z,50.30
2023-04-12T07:08:23.205Z,50.30
2023-04-12T07:11:00.547Z,50.30
2023-04-12T07:13:30.711Z,50.30
2023-04-12T07:16:02.033Z,50.00
2023-04-12T07:18:33.210Z,49.50
2023-04-12T07:21:04.277Z,50.00
2023-04-12T07:23:35.413Z,49.80
2023-04-12T07:26:06.766Z,49.90
2023-04-12T07:28:39.302Z,49.60
2023-04-12T07:31:10.605Z,50.00
2023-04-12T07:33:42.960Z,49.80
2023-04-12T07:36:14.376Z,50.40
2023-04-12T07:38:45.529Z,50.00
2023-04-12T07:41:16.477Z,50.00
2023-04-12T07:43:47.753Z,50.10
2023-04-12T07:46:18.756Z,50.10
2023-04-12T07:48:49.928Z,50.20
2023-04-12T07:51:20.923Z,49.50
2023-04-12T07:53:52.808Z,49.50
2023-04-12T07:56:23.763Z,49.60
2023-04-12T07:58:54.776Z,49.40
2023-04-12T08:01:25.739Z,49.20
2023-04-12T08:03:57.087Z,49.70
2023-04-12T08:06:31.077Z,49.90
2023-04-12T08:09:00.805Z,49.40
2023-04-12T08:11:31.811Z,49.70
2023-04-12T08:14:02.764Z,49.00
2023-04-12T08:16:34.369Z,49.20
2023-04-12T08:19:05.608Z,49.50
2023-04-12T08:21:36.595Z,48.80
2023-04-12T08:24:08.069Z,48.70
2023-04-12T08:26:39.232Z,48.90
2023-04-12T08:29:10.328Z,48.40
2023-04-12T08:31:42.118Z,48.00
2023-04-12T08:34:13.357Z,48.50
2023-04-12T08:36:44.312Z,48.60
2023-04-12T08:39:15.266Z,48.10
2023-04-12T08:41:47.083Z,48.70
2023-04-12T08:44:19.424Z,48.90
2023-04-12T08:46:53.415Z,48.80
2023-04-12T08:49:24.965Z,48.50
2023-04-12T08:51:57.220Z,48.50
2023-04-12T08:54:29.050Z,48.10
2023-04-12T08:57:02.474Z,48.70
2023-04-12T08:59:34.609Z,48.90
2023-04-12T09:02:05.775Z,48.30
2023-04-12T09:04:37.089Z,48.00
2023-04-12T09:07:08.180Z,48.80
2023-04-12T09:09:47.304Z,48.50
2023-04-12T09:12:20.149Z,48.30
2023-04-12T09:14:53.151Z,48.20
2023-04-12T09:17:30.734Z,48.20
2023-04-12T09:20:01.823Z,48.30
2023-04-12T09:22:44.815Z,48.60
2023-04-12T09:25:16.355Z,48.60
2023-04-12T09:27:52.186Z,50.80
2023-04-12T09:30:23.831Z,49.90
2023-04-12T09:32:56.002Z,49.30
2023-04-12T09:35:39.123Z,49.40
2023-04-12T09:38:13.971Z,49.00
2023-04-12T09:40:45.010Z,48.10
2023-04-12T09:43:16.972Z,48.10
2023-04-12T09:45:48.620Z,47.70
2023-04-12T09:48:24.647Z,48.10
2023-04-12T09:50:59.553Z,47.40
2023-04-12T09:53:30.828Z,47.80
2023-04-12T09:56:04.003Z,47.60
2023-04-12T09:58:39.325Z,47.50
2023-04-12T10:01:12.227Z,48.00
2023-04-12T10:03:43.424Z,48.30
2023-04-12T10:06:15.973Z,48.60
2023-04-12T10:08:47.930Z,48.60
2023-04-12T10:11:19.016Z,48.20
2023-04-12T10:13:51.923Z,47.70
2023-04-12T10:16:23.598Z,48.50
2023-04-12T10:18:55.354Z,48.50
2023-04-12T10:21:27.133Z,48.50
2023-04-12T10:23:58.281Z,47.50
2023-04-12T10:26:29.981Z,47.60
2023-04-12T10:29:20.116Z,47.40
2023-04-12T10:31:52.136Z,47.50
2023-04-12T10:34:28.445Z,47.40
2023-04-12T10:37:01.668Z,48.00
2023-04-12T10:39:44.065Z,47.50
2023-04-12T10:42:23.688Z,47.30
2023-04-12T10:44:58.709Z,47.40
2023-04-12T10:47:58.133Z,47.60
2023-04-12T10:50:31.800Z,48.20
2023-04-12T10:53:19.749Z,48.70
2023-04-12T10:55:51.186Z,50.70
2023-04-12T10:58:52.957Z,52.40
2023-04-12T11:01:24.170Z,53.10
2023-04-12T11:04:16.602Z,53.90
2023-04-12T11:06:59.077Z,54.60
2023-04-12T11:09:37.868Z,55.10
2023-04-12T11:12:11.386Z,55.40
2023-04-12T11:14:53.619Z,55.50
2023-04-12T11:17:25.694Z,55.80
2023-04-12T11:19:59.201Z,55.70
2023-04-12T11:22:32.222Z,55.80
2023-04-12T11:25:04.655Z,56.10
2023-04-12T11:27:35.775Z,56.20
2023-04-12T11:30:07.851Z,56.10
2023-04-12T11:32:40.360Z,56.30
2023-04-12T11:35:12.227Z,56.50
2023-04-12T11:37:43.213Z,56.60
2023-04-12T11:40:14.968Z,57.00
2023-04-12T11:42:45.964Z,57.20
2023-04-12T11:45:19.329Z,57.40
2023-04-12T11:47:50.331Z,57.40
2023-04-12T11:50:32.137Z,57.60
2023-04-12T11:53:18.056Z,57.70
2023-04-12T11:56:06.937Z,57.70
2023-04-12T11:58:42.152Z,56.90
2023-04-12T12:01:13.696Z,57.60
2023-04-12T12:03:48.164Z,57.80
2023-04-12T12:06:20.721Z,57.90
2023-04-12T12:08:53.663Z,58.00
2023-04-12T12:11:25.284Z,58.00
2023-04-12T12:13:57.927Z,58.20
2023-04-12T12:16:33.117Z,58.00
2023-04-12T12:19:08.094Z,57.90
2023-04-12T12:21:39.061Z,58.00
2023-04-12T12:24:12.090Z,58.30
2023-04-12T12:26:44.594Z,58.10
2023-04-12T12:29:20.634Z,58.30
2023-04-12T12:31:52.113Z,58.00
2023-04-12T12:34:23.169Z,58.10
2023-04-12T12:36:58.228Z,58.10
2023-04-12T12:39:29.477Z,58.30
2023-04-12T12:42:01.394Z,58.20
2023-04-12T12:44:32.917Z,58.30
2023-04-12T12:47:13.885Z,58.30
2023-04-12T12:49:37.325Z,58.40
2023-04-12T12:52:08.292Z,58.60
2023-04-12T12:54:41.493Z,58.70
2023-04-12T12:57:12.042Z,58.80
2023-04-12T12:59:43.026Z,59.00
2023-04-12T13:02:15.492Z,59.00
2023-04-12T13:04:46.637Z,59.10
2023-04-12T13:07:17.749Z,59.10
2023-04-12T13:09:49.018Z,59.20
2023-04-12T13:12:20.049Z,59.30
2023-04-12T13:14:54.418Z,59.40
2023-04-12T13:17:24.386Z,59.00
2023-04-12T13:19:55.487Z,58.80
2023-04-12T13:22:26.469Z,58.70
2023-04-12T13:24:57.564Z,58.80
2023-04-12T13:27:28.735Z,58.70
2023-04-12T13:29:59.732Z,58.70
2023-04-12T13:32:30.827Z,58.40
2023-04-12T13:35:01.962Z,58.20
2023-04-12T13:37:32.982Z,58.20
2023-04-12T13:40:03.955Z,58.00
2023-04-12T13:42:35.350Z,57.80
2023-04-12T13:45:06.578Z,57.80
2023-04-12T13:47:37.567Z,57.70
2023-04-12T13:50:09.594Z,57.50
2023-04-12T13:52:40.558Z,57.50
2023-04-12T13:55:12.367Z,57.60
2023-04-12T13:57:43.862Z,57.40
2023-04-12T14:00:16.622Z,57.10
2023-04-12T14:02:47.701Z,57.00
2023-04-12T14:05:18.723Z,57.20
2023-04-12T14:07:51.041Z,57.10
2023-04-12T14:10:22.032Z,57.40
2023-04-12T14:12:52.995Z,57.40
2023-04-12T14:15:24.015Z,57.50
2023-04-12T14:17:55.058Z,57.40
2023-04-12T14:20:26.057Z,57.60
2023-04-12T14:22:58.027Z,58.10
2023-04-12T14:25:28.992Z,57.80
2023-04-12T14:27:59.951Z,57.90
2023-04-12T14:30:31.010Z,58.00
2023-04-12T14:33:02.016Z,58.70
2023-04-12T14:35:33.088Z,58.00
2023-04-12T14:38:04.081Z,58.20
2023-04-12T14:40:35.189Z,58.10
2023-04-12T14:43:06.161Z,58.40
2023-04-12T14:45:39.506Z,58.30
2023-04-12T14:48:10.466Z,58.30
2023-04-12T14:50:41.447Z,58.60
2023-04-12T14:53:13.923Z,58.60
2023-04-12T14:55:47.705Z,58.40
2023-04-12T14:58:18.764Z,59.50
2023-04-12T15:00:50.001Z,58.80
2023-04-12T15:03:23.003Z,59.00
2023-04-12T15:06:00.513Z,59.00
2023-04-12T15:08:30.973Z,58.80
2023-04-12T15:11:04.663Z,59.00
2023-04-12T15:13:35.680Z,59.20
2023-04-12T15:16:07.338Z,59.10
2023-04-12T15:18:43.124Z,59.20
2023-04-12T15:21:14.739Z,59.10
2023-04-12T15:23:46.213Z,59.30
2023-04-12T15:26:17.279Z,59.30
2023-04-12T15:28:48.309Z,59.20
2023-04-12T15:31:19.756Z,59.30
2023-04-12T15:33:51.589Z,59.50
2023-04-12T15:36:23.196Z,59.60
2023-04-12T15:38:55.501Z,59.70
2023-04-12T15:41:26.494Z,59.80
2023-04-12T15:43:57.733Z,60.10
2023-04-12T15:46:28.974Z,60.20
2023-04-12T15:49:01.130Z,60.50
2023-04-12T15:51:33.391Z,60.10
2023-04-12T15:57:14.073Z,60.60
2023-04-12T15:59:49.006Z,60.90
2023-04-12T16:02:20.754Z,60.60
2023-04-12T16:04:56.975Z,60.80
2023-04-12T16:07:31.123Z,60.70
2023-04-12T16:10:02.108Z,60.60
2023-04-12T16:12:33.038Z,61.20
2023-04-12T16:15:04.461Z,61.50
2023-04-12T16:17:40.757Z,61.20
2023-04-12T16:20:15.243Z,61.40
2023-04-12T16:22:49.071Z,61.70
2023-04-12T16:25:23.072Z,61.70
2023-04-12T16:27:54.039Z,62.00
2023-04-12T16:30:38.047Z,61.70
2023-04-12T16:33:15.228Z,61.60
2023-04-12T16:35:47.614Z,61.60
2023-04-12T16:38:18.577Z,62.00
2023-04-12T16:40:49.566Z,62.00
2023-04-12T16:43:20.552Z,62.30
2023-04-12T16:46:16.132Z,62.00
2023-04-12T16:49:07.692Z,63.50
2023-04-12T16:51:45.884Z,62.60
2023-04-12T16:54:25.885Z,62.70
2023-04-12T17:02:28.631Z,62.70
2023-04-12T17:05:06.046Z,62.70
2023-04-12T17:07:37.103Z,62.70
2023-04-12T17:10:14.208Z,62.80
2023-04-12T17:12:46.335Z,63.00
2023-04-12T17:15:19.043Z,62.80
2023-04-12T17:17:58.140Z,62.90
2023-04-12T17:20:29.206Z,63.00
2023-04-12T17:23:01.080Z,62.80
2023-04-12T17:25:33.216Z,62.80
2023-04-12T17:28:08.143Z,63.00
2023-04-12T17:30:39.603Z,62.70
2023-04-12T17:33:10.560Z,62.50
2023-04-12T17:35:41.855Z,62.50
2023-04-12T17:38:12.848Z,62.50
2023-04-12T17:41:20.543Z,62.50
2023-04-12T17:44:10.990Z,62.70
2023-04-12T17:46:41.986Z,62.80
2023-04-12T17:49:12.977Z,63.00
2023-04-12T17:51:51.285Z,63.10
2023-04-12T17:54:28.285Z,63.30
2023-04-12T17:56:59.255Z,63.50
2023-04-12T17:59:37.377Z,63.60
2023-04-12T18:05:12.381Z,64.00
2023-04-12T18:07:43.850Z,64.10
2023-04-12T18:10:26.681Z,64.30
2023-04-12T18:12:56.166Z,64.30
2023-04-12T18:15:29.641Z,64.30
2023-04-12T18:18:13.902Z,64.60
2023-04-12T18:26:48.733Z,64.60
2023-04-12T18:29:20.502Z,65.00
2023-04-12T18:31:51.597Z,65.30
2023-04-12T18:34:23.814Z,65.10
2023-04-12T18:36:54.990Z,65.70
2023-04-12T18:39:26.046Z,66.00
2023-04-12T18:42:01.118Z,65.90
2023-04-12T18:44:32.569Z,66.30
2023-04-12T18:47:03.683Z,66.30
2023-04-12T18:49:34.947Z,66.90
2023-04-12T18:52:05.945Z,66.30
2023-04-12T18:54:37.133Z,66.30
2023-04-12T18:57:08.149Z,66.30
2023-04-12T18:59:39.147Z,66.30
2023-04-12T19:02:10.484Z,66.30
2023-04-12T19:04:42.363Z,66.50
2023-04-12T19:07:13.417Z,66.40
2023-04-12T19:09:44.616Z,66.40
2023-04-12T19:12:15.626Z,66.70
2023-04-12T19:14:46.752Z,66.70
2023-04-12T19:17:17.788Z,67.00
2023-04-12T19:19:48.839Z,67.10
2023-04-12T19:22:19.808Z,67.50
2023-04-12T19:24:53.857Z,67.60
2023-04-12T19:27:25.142Z,67.40
2023-04-12T19:29:56.127Z,68.10
2023-04-12T19:32:27.199Z,68.60
2023-04-12T19:34:58.144Z,68.80
2023-04-12T19:37:30.500Z,69.10
2023-04-12T19:40:01.660Z,69.30
2023-04-12T19:42:32.775Z,69.30
2023-04-12T19:45:05.164Z,69.60
2023-04-12T19:47:36.258Z,70.00
2023-04-12T19:50:08.291Z,70.20
2023-04-12T19:52:39.293Z,70.00
2023-04-12T19:55:12.252Z,70.00
2023-04-12T19:57:44.195Z,70.50
2023-04-12T20:00:17.318Z,70.60
2023-04-12T20:02:48.643Z,70.90
2023-04-12T20:05:19.822Z,71.20
2023-04-12T20:07:50.957Z,71.10
2023-04-12T20:10:22.289Z,72.10
2023-04-12T20:12:53.506Z,71.30
2023-04-12T20:15:24.484Z,71.10
2023-04-12T20:17:55.508Z,71.00
2023-04-12T20:20:26.643Z,70.90
2023-04-12T20:22:58.995Z,70.80
2023-04-12T20:25:30.012Z,71.00
2023-04-12T20:28:02.679Z,70.90
2023-04-12T20:30:33.745Z,71.50
2023-04-12T20:33:05.049Z,71.70
2023-04-12T20:35:36.642Z,71.80
2023-04-12T20:38:08.210Z,71.60
2023-04-12T20:40:39.246Z,72.00
2023-04-12T20:43:10.199Z,71.80
2023-04-12T20:45:41.190Z,71.90
2023-04-12T20:48:12.690Z,72.20
2023-04-12T20:50:43.793Z,72.40
2023-04-12T20:53:16.130Z,72.70
2023-04-12T20:55:47.637Z,73.00
2023-04-12T20:58:19.420Z,72.80
2023-04-12T21:00:50.431Z,73.40
2023-04-12T21:03:21.526Z,73.40
2023-04-12T21:05:53.842Z,73.70
2023-04-12T21:08:24.788Z,73.40
2023-04-12T21:10:55.768Z,73.50
2023-04-12T21:13:27.655Z,73.70
2023-04-12T21:15:59.805Z,73.40
2023-04-12T21:18:32.146Z,74.40
2023-04-12T21:21:03.616Z,74.10
2023-04-12T21:23:34.652Z,74.30
2023-04-12T21:26:05.704Z,74.50
2023-04-12T21:28:36.708Z,74.60
2023-04-12T21:31:08.240Z,74.90
2023-04-12T21:33:39.504Z,75.10
2023-04-12T21:36:12.161Z,74.80
2023-04-12T21:38:43.387Z,75.20
2023-04-12T21:41:15.174Z,74.80
2023-04-12T21:43:47.552Z,75.10
2023-04-12T21:46:18.604Z,75.50
2023-04-12T21:48:49.727Z,75.50
2023-04-12T21:51:20.768Z,75.20
2023-04-12T21:53:51.760Z,75.70
2023-04-12T21:56:22.746Z,75.90
2023-04-12T21:58:53.740Z,76.00
2023-04-12T22:01:24.776Z,76.20
2023-04-12T22:03:55.880Z,76.30
2023-04-12T22:06:27.008Z,76.50
2023-04-12T22:08:58.289Z,76.50
2023-04-12T22:11:29.564Z,76.20
2023-04-12T22:14:00.749Z,76.60
2023-04-12T22:16:31.708Z,76.90
2023-04-12T22:19:02.994Z,77.20
2023-04-12T22:21:34.558Z,77.50
2023-04-12T22:24:05.778Z,77.40
2023-04-12T22:26:36.719Z,77.40
2023-04-12T22:29:07.686Z,77.90
2023-04-12T22:31:39.645Z,77.80
2023-04-12T22:34:10.655Z,77.50
2023-04-12T22:36:43.259Z,77.50
2023-04-12T22:39:15.661Z,78.20
2023-04-12T22:41:48.201Z,78.40
2023-04-12T22:44:19.761Z,78.40
2023-04-12T22:46:51.042Z,78.60
2023-04-12T22:49:22.155Z,78.80
2023-04-12T22:51:53.139Z,79.30
2023-04-12T22:54:24.687Z,78.70
2023-04-12T22:56:55.817Z,79.00
2023-04-12T22:59:26.838Z,79.20
2023-04-12T23:01:58.065Z,77.20
2023-04-12T23:04:29.098Z,79.50
2023-04-12T23:07:00.081Z,78.80
2023-04-12T23:09:31.137Z,79.50
2023-04-12T23:12:02.791Z,79.40
2023-04-12T23:14:33.762Z,80.20
2023-04-12T23:17:04.735Z,80.40
2023-04-12T23:19:35.703Z,80.50
2023-04-12T23:22:07.107Z,80.90
2023-04-12T23:24:38.084Z,80.90
2023-04-12T23:27:09.086Z,81.00
2023-04-12T23:29:40.073Z,81.10
2023-04-12T23:32:11.537Z,80.70
2023-04-12T23:34:42.546Z,81.30
2023-04-12T23:37:13.539Z,81.70
2023-04-12T23:39:44.535Z,81.80
2023-04-12T23:42:15.492Z,81.40
2023-04-12T23:44:47.699Z,82.00
2023-04-12T23:47:18.676Z,81.80
2023-04-12T23:49:49.676Z,81.90
2023-04-12T23:52:20.629Z,81.60
2023-04-12T23:54:51.619Z,82.00
2023-04-12T23:57:22.898Z,82.00
2023-04-12T23:59:54.466Z,82.10
